Terminal Aerodrome Forecast
Issued by NWS

Home | Current Version | Previous Version | Text Only | Print | Product List | Glossary On
Versions: 1 2 3 4 5 6 7 8 9 10 11 12 13 14
000
FTAK31 PAJN 201727
TAFASI
TAF
PASI 201727Z 2018/2118 VRB05KT 6SM -SHRA BR FEW015 OVC025
      TEMPO 2018/2020 4SM SHRA BR BKN015 OVC025
     FM202000 24008KT P6SM -SHRA SCT020 OVC035
     FM211200 11012G20KT P6SM -SHRA OVC040 WS020/14030KT=

USA.gov is the U.S. government's official web portal to all federal, state and local government web resources and services.